Time;durP1;ratioP1;P1;durP2;ratioP2;P2;SDS_P1;SDS_P2;PMS_P1;PMS_P2;Temp;Humidity;BMP_temperature;BMP_pressure;BME280_temperature;BME280_humidity;BME280_pressure;Samples;Min_cycle;Max_cycle;Signal;HPM_P1;HPM_P2
2023/10/27 00:01:04;;;;;;;4.90;3.25;;;20.00;59.40;;;;;;4979033;28;20280;-79
2023/10/27 00:03:31;;;;;;;4.32;3.03;;;20.00;59.50;;;;;;4979257;28;20269;-79
2023/10/27 00:05:58;;;;;;;3.55;2.88;;;20.00;59.50;;;;;;4979924;28;20237;-79
2023/10/27 00:08:25;;;;;;;5.97;2.95;;;20.00;59.50;;;;;;4979107;28;20193;-79
2023/10/27 00:10:53;;;;;;;4.28;2.95;;;20.00;59.40;;;;;;4978077;28;20622;-79
2023/10/27 00:13:22;;;;;;;5.35;3.38;;;20.00;59.50;;;;;;4978663;28;20205;-79
2023/10/27 00:15:49;;;;;;;4.72;2.90;;;20.00;59.50;;;;;;4946540;28;20214;-79
2023/10/27 00:18:16;;;;;;;4.90;3.05;;;20.00;59.50;;;;;;4978475;28;20197;-79
2023/10/27 00:20:43;;;;;;;4.95;3.13;;;19.90;59.40;;;;;;4980708;28;20214;-79
2023/10/27 00:23:10;;;;;;;5.38;2.90;;;19.90;59.50;;;;;;4962815;28;20288;-79
2023/10/27 00:25:37;;;;;;;4.90;2.85;;;19.90;59.50;;;;;;4986497;28;20188;-79
2023/10/27 00:28:05;;;;;;;3.22;2.70;;;19.90;59.50;;;;;;4998628;28;20177;-79
2023/10/27 00:30:33;;;;;;;3.22;2.78;;;19.90;59.50;;;;;;4999578;28;20277;-79
2023/10/27 00:33:00;;;;;;;3.80;2.90;;;19.90;59.60;;;;;;4979397;28;20208;-79
2023/10/27 00:35:27;;;;;;;4.32;2.90;;;19.90;59.60;;;;;;4978809;28;20687;-79
2023/10/27 00:37:54;;;;;;;2.97;2.53;;;19.90;59.60;;;;;;4978180;28;20619;-79
2023/10/27 00:40:21;;;;;;;3.45;2.33;;;19.90;59.60;;;;;;4978296;28;20221;-79
2023/10/27 00:42:49;;;;;;;4.97;3.28;;;19.90;59.60;;;;;;4978019;28;20202;-79
2023/10/27 00:45:16;;;;;;;4.28;2.75;;;19.90;59.60;;;;;;4977912;28;20205;-79
2023/10/27 00:47:44;;;;;;;4.10;2.80;;;19.90;59.60;;;;;;4978120;28;20627;-79
2023/10/27 00:50:11;;;;;;;5.68;2.78;;;19.80;59.50;;;;;;4978042;28;20233;-79
2023/10/27 00:52:38;;;;;;;3.05;2.53;;;19.80;59.50;;;;;;4995362;28;20193;-79
2023/10/27 00:55:06;;;;;;;3.30;2.65;;;19.80;59.50;;;;;;4978026;28;20214;-79
2023/10/27 00:57:33;;;;;;;5.32;2.83;;;19.80;59.60;;;;;;4995549;28;20247;-79
2023/10/27 01:00:00;;;;;;;3.40;2.53;;;19.80;59.50;;;;;;4977922;28;20217;-79
2023/10/27 01:02:27;;;;;;;3.22;2.67;;;19.90;59.60;;;;;;4961811;28;20752;-79
2023/10/27 01:04:56;;;;;;;4.20;2.55;;;19.80;59.50;;;;;;4995188;28;20719;-79
2023/10/27 01:07:24;;;;;;;4.38;2.83;;;19.80;59.60;;;;;;4961396;28;20260;-79
2023/10/27 01:09:51;;;;;;;3.67;2.47;;;19.70;59.50;;;;;;4961528;28;20685;-79
2023/10/27 01:12:18;;;;;;;3.25;2.42;;;19.70;59.50;;;;;;4961277;28;20240;-79
2023/10/27 01:14:45;;;;;;;2.92;2.47;;;19.80;59.60;;;;;;4977555;28;20228;-79
2023/10/27 01:17:12;;;;;;;4.75;2.70;;;19.80;59.60;;;;;;4978339;28;20204;-79
2023/10/27 01:19:39;;;;;;;3.75;2.90;;;19.80;59.60;;;;;;4977311;28;20221;-79
2023/10/27 01:22:07;;;;;;;4.28;2.78;;;19.70;59.60;;;;;;4961064;28;20251;-79
2023/10/27 01:24:36;;;;;;;3.20;2.35;;;19.80;59.70;;;;;;4977943;28;20201;-79
2023/10/27 01:27:04;;;;;;;3.28;2.38;;;19.70;59.60;;;;;;4995062;28;20288;-79
2023/10/27 01:29:31;;;;;;;3.78;2.50;;;19.70;59.70;;;;;;4977878;28;20221;-79
2023/10/27 01:31:58;;;;;;;2.92;2.17;;;19.70;59.60;;;;;;4977308;28;20209;-79
2023/10/27 01:34:25;;;;;;;2.78;2.25;;;19.70;59.60;;;;;;4961432;28;20221;-79
2023/10/27 01:36:52;;;;;;;3.65;2.17;;;19.70;59.60;;;;;;4961579;28;20201;-79
2023/10/27 01:39:18;;;;;;;3.47;2.13;;;19.70;59.60;;;;;;4977164;28;20205;-79
2023/10/27 01:41:47;;;;;;;2.92;2.42;;;19.70;59.60;;;;;;4961155;28;20201;-79
2023/10/27 01:44:14;;;;;;;3.72;2.40;;;19.70;59.60;;;;;;4977247;28;20197;-79
2023/10/27 01:46:41;;;;;;;3.78;2.20;;;19.70;59.50;;;;;;4977115;28;20683;-79
2023/10/27 01:49:08;;;;;;;2.67;2.20;;;19.70;59.60;;;;;;4977246;28;20209;-79
2023/10/27 01:51:35;;;;;;;4.50;2.33;;;19.70;59.50;;;;;;4994759;28;20224;-79
2023/10/27 01:54:02;;;;;;;3.45;2.33;;;19.70;59.60;;;;;;4977237;28;20209;-79
2023/10/27 01:56:33;;;;;;;3.85;2.42;;;19.70;59.60;;;;;;4977345;28;20304;-79
2023/10/27 01:59:01;;;;;;;3.50;2.30;;;19.70;59.60;;;;;;4976922;28;20189;-79
2023/10/27 02:01:28;;;;;;;3.55;2.60;;;19.70;59.60;;;;;;4978470;28;20204;-79
2023/10/27 02:03:55;;;;;;;3.00;2.25;;;19.70;59.60;;;;;;4978220;28;20194;-79
2023/10/27 02:06:23;;;;;;;3.45;2.10;;;19.70;59.60;;;;;;4977297;28;20197;-79
2023/10/27 02:08:51;;;;;;;2.42;2.00;;;19.60;59.40;;;;;;4977139;28;20196;-79
2023/10/27 02:11:17;;;;;;;3.25;2.10;;;19.60;59.50;;;;;;4977092;28;20248;-79
2023/10/27 02:13:44;;;;;;;3.20;2.63;;;19.60;59.40;;;;;;4961334;28;20284;-79
2023/10/27 02:16:13;;;;;;;3.05;2.10;;;19.60;59.40;;;;;;4977554;28;20599;-79
2023/10/27 02:18:40;;;;;;;2.90;2.22;;;19.60;59.40;;;;;;4977236;28;20201;-79
2023/10/27 02:21:07;;;;;;;2.67;2.30;;;19.60;59.50;;;;;;4980689;28;20220;-79
2023/10/27 02:23:34;;;;;;;2.50;2.20;;;19.60;59.40;;;;;;4977048;28;20653;-79
2023/10/27 02:26:00;;;;;;;2.35;2.15;;;19.60;59.40;;;;;;4976724;28;20708;-79
2023/10/27 02:28:28;;;;;;;2.50;2.03;;;19.60;59.40;;;;;;4976929;28;20212;-79
2023/10/27 02:30:55;;;;;;;3.42;2.25;;;19.60;59.30;;;;;;4977062;28;20708;-79
2023/10/27 02:33:25;;;;;;;2.88;2.22;;;19.60;59.30;;;;;;4961318;28;20207;-79
2023/10/27 02:35:52;;;;;;;2.80;2.00;;;19.60;59.30;;;;;;4965599;28;20221;-79
2023/10/27 02:38:20;;;;;;;4.38;2.13;;;19.60;59.40;;;;;;4985118;28;20198;-79
2023/10/27 02:40:46;;;;;;;2.75;2.17;;;19.60;59.40;;;;;;4988302;28;20564;-79
2023/10/27 02:43:14;;;;;;;2.50;2.03;;;19.50;59.30;;;;;;4989935;28;20205;-79
2023/10/27 02:45:41;;;;;;;2.88;2.03;;;19.60;59.40;;;;;;4988107;28;20192;-79
2023/10/27 02:48:08;;;;;;;2.70;1.88;;;19.50;59.30;;;;;;4969160;28;20212;-79
2023/10/27 02:50:37;;;;;;;2.67;1.92;;;19.50;59.30;;;;;;4983515;28;20224;-79
2023/10/27 02:53:04;;;;;;;2.40;1.95;;;19.50;59.30;;;;;;4982687;28;20206;-79
2023/10/27 02:55:31;;;;;;;2.58;1.92;;;19.60;59.40;;;;;;4982180;28;20688;-79
2023/10/27 02:57:58;;;;;;;3.20;2.20;;;19.50;59.30;;;;;;4966074;28;20201;-79
2023/10/27 03:00:25;;;;;;;3.40;2.10;;;19.50;59.30;;;;;;4965603;28;20222;-79
2023/10/27 03:02:52;;;;;;;2.95;1.92;;;19.50;59.40;;;;;;4982179;28;20201;-79
2023/10/27 03:05:19;;;;;;;2.58;1.83;;;19.50;59.40;;;;;;4981993;28;20232;-79
2023/10/27 03:07:48;;;;;;;2.58;2.00;;;19.50;59.50;;;;;;4981298;28;20303;-79
2023/10/27 03:10:15;;;;;;;2.90;2.22;;;19.40;59.40;;;;;;4980153;28;20224;-79
2023/10/27 03:12:42;;;;;;;2.20;1.85;;;19.50;59.60;;;;;;4980075;28;20194;-79
2023/10/27 03:15:10;;;;;;;3.13;1.83;;;19.50;59.60;;;;;;4980472;28;20217;-79
2023/10/27 03:17:37;;;;;;;2.42;1.90;;;19.40;59.50;;;;;;4980576;28;20197;-79
2023/10/27 03:20:05;;;;;;;2.40;1.88;;;19.40;60.00;;;;;;4981550;28;20300;-79
2023/10/27 03:22:33;;;;;;;1.90;1.63;;;19.40;59.40;;;;;;4980978;28;20202;-79
2023/10/27 03:25:03;;;;;;;3.17;1.63;;;19.40;59.40;;;;;;4981199;28;20247;-79
2023/10/27 03:27:32;;;;;;;2.45;1.52;;;19.50;59.40;;;;;;4980950;28;20207;-79
2023/10/27 03:29:59;;;;;;;3.08;1.80;;;19.40;59.20;;;;;;4981801;28;20248;-79
2023/10/27 03:32:28;;;;;;;2.03;1.73;;;19.50;59.30;;;;;;4982613;28;20222;-79
2023/10/27 03:34:54;;;;;;;2.00;1.70;;;19.50;59.20;;;;;;4982526;28;20615;-79
2023/10/27 03:37:21;;;;;;;1.98;1.75;;;19.50;59.10;;;;;;4981963;28;20201;-79
2023/10/27 03:39:49;;;;;;;2.05;1.70;;;19.50;59.00;;;;;;4981335;28;20213;-79
2023/10/27 03:42:18;;;;;;;2.25;1.88;;;19.60;59.00;;;;;;4981253;28;20674;-79
2023/10/27 03:44:45;;;;;;;2.85;1.63;;;19.60;59.00;;;;;;4981007;28;20208;-79
2023/10/27 03:47:12;;;;;;;2.35;1.67;;;19.60;58.80;;;;;;4979818;28;20203;-79
2023/10/27 03:49:39;;;;;;;2.38;1.90;;;19.60;58.70;;;;;;4980397;28;20221;-79
2023/10/27 03:52:08;;;;;;;1.80;1.70;;;19.70;58.70;;;;;;4980096;28;20663;-79
2023/10/27 03:54:35;;;;;;;2.08;1.45;;;19.60;58.50;;;;;;4979862;28;20652;-79
2023/10/27 03:57:02;;;;;;;1.75;1.50;;;19.70;58.60;;;;;;4980639;28;20217;-79
2023/10/27 03:59:30;;;;;;;1.52;1.40;;;19.70;58.60;;;;;;4979028;28;20256;-79
2023/10/27 04:01:58;;;;;;;1.92;1.73;;;19.70;58.60;;;;;;4963201;28;20208;-79
2023/10/27 04:04:25;;;;;;;1.77;1.67;;;19.70;58.60;;;;;;4974537;28;20665;-79
2023/10/27 04:06:53;;;;;;;2.50;1.50;;;19.70;58.60;;;;;;4979125;28;20189;-79
2023/10/27 04:09:22;;;;;;;2.40;1.90;;;19.70;58.60;;;;;;4979053;28;20221;-79
2023/10/27 04:11:49;;;;;;;1.63;1.38;;;19.70;58.60;;;;;;4978648;28;20292;-79
2023/10/27 04:14:16;;;;;;;2.13;1.92;;;19.60;58.50;;;;;;4979666;28;20201;-79
2023/10/27 04:16:46;;;;;;;2.35;1.80;;;19.60;58.50;;;;;;4978496;28;20268;-80
2023/10/27 04:19:14;;;;;;;1.95;1.73;;;19.60;58.50;;;;;;4978763;28;20205;-80
2023/10/27 04:21:41;;;;;;;2.13;1.80;;;19.70;58.60;;;;;;4978601;28;20220;-79
2023/10/27 04:24:08;;;;;;;1.67;1.58;;;19.60;58.50;;;;;;4978479;28;20194;-79
2023/10/27 04:26:36;;;;;;;2.60;1.80;;;19.60;58.50;;;;;;4978415;28;20711;-79
2023/10/27 04:29:03;;;;;;;1.83;1.70;;;19.60;58.70;;;;;;4978438;28;20202;-79
2023/10/27 04:31:30;;;;;;;2.08;1.70;;;19.60;58.60;;;;;;4979003;28;20228;-79
2023/10/27 04:33:59;;;;;;;2.45;1.65;;;19.60;58.90;;;;;;4979261;28;20711;-79
2023/10/27 04:36:25;;;;;;;2.58;1.80;;;19.60;58.70;;;;;;4979468;28;20213;-79
2023/10/27 04:38:52;;;;;;;1.70;1.60;;;19.60;58.70;;;;;;4978798;28;20236;-79
2023/10/27 04:41:19;;;;;;;1.95;1.60;;;19.60;58.60;;;;;;4979425;28;20719;-79
2023/10/27 04:43:46;;;;;;;2.72;1.55;;;19.60;58.70;;;;;;4979482;28;20193;-79
2023/10/27 04:46:14;;;;;;;1.95;1.70;;;19.60;58.70;;;;;;4980019;28;20201;-79
2023/10/27 04:48:41;;;;;;;2.05;1.65;;;19.60;58.50;;;;;;5016749;23;20606;-84
2023/10/27 04:51:09;;;;;;;1.98;1.63;;;19.60;58.60;;;;;;5033179;28;20230;-83
2023/10/27 04:53:37;;;;;;;2.00;1.65;;;19.60;58.60;;;;;;5033479;28;20196;-83
2023/10/27 04:56:04;;;;;;;2.05;1.50;;;19.60;58.70;;;;;;5033245;28;20701;-83
2023/10/27 04:58:32;;;;;;;1.60;1.50;;;19.60;58.60;;;;;;5033408;28;20203;-83
2023/10/27 05:00:58;;;;;;;1.85;1.65;;;19.60;58.70;;;;;;5033608;28;20275;-84
2023/10/27 05:03:27;;;;;;;1.30;1.20;;;19.60;58.60;;;;;;5033253;28;20196;-83
2023/10/27 05:05:53;;;;;;;1.90;1.63;;;19.60;58.50;;;;;;5033619;28;20287;-84
2023/10/27 05:08:22;;;;;;;2.70;1.50;;;19.60;58.50;;;;;;5033144;28;20200;-83
2023/10/27 05:10:49;;;;;;;2.78;1.58;;;19.60;58.50;;;;;;5033101;28;20223;-84
2023/10/27 05:13:17;;;;;;;2.78;1.70;;;19.60;58.50;;;;;;5033203;28;20207;-84
2023/10/27 05:15:53;;;;;;;1.60;1.50;;;19.70;58.60;;;;;;5032925;28;20220;-84
2023/10/27 05:18:20;;;;;;;2.08;1.50;;;19.60;58.50;;;;;;5034119;28;20580;-84
2023/10/27 05:20:47;;;;;;;1.52;1.42;;;19.60;59.10;;;;;;5033024;28;20228;-84
2023/10/27 05:23:14;;;;;;;2.42;1.80;;;19.70;58.60;;;;;;5032881;28;20211;-83
2023/10/27 05:25:44;;;;;;;1.85;1.60;;;19.70;58.50;;;;;;5032955;28;20188;-84
2023/10/27 05:28:12;;;;;;;1.58;1.30;;;19.70;58.50;;;;;;5033024;28;20235;-84
2023/10/27 05:30:43;;;;;;;2.10;1.48;;;19.70;58.50;;;;;;5032795;28;20219;-84
2023/10/27 05:33:10;;;;;;;1.75;1.50;;;19.70;58.40;;;;;;5033432;28;20282;-84
2023/10/27 05:35:37;;;;;;;1.55;1.45;;;19.70;58.30;;;;;;5032976;28;20687;-84
2023/10/27 05:38:04;;;;;;;2.00;1.55;;;19.70;58.40;;;;;;5032898;28;20207;-84
2023/10/27 05:40:33;;;;;;;1.70;1.40;;;19.70;58.30;;;;;;5032483;28;20216;-84
2023/10/27 05:43:02;;;;;;;1.85;1.60;;;19.70;58.40;;;;;;5032610;28;20651;-84
2023/10/27 05:45:29;;;;;;;1.98;1.60;;;19.70;58.30;;;;;;5032584;28;20203;-84
2023/10/27 05:47:56;;;;;;;2.33;1.65;;;19.70;58.30;;;;;;5032751;28;20646;-84
2023/10/27 05:50:23;;;;;;;2.28;1.33;;;19.70;58.30;;;;;;5015978;28;20220;-83
2023/10/27 05:52:50;;;;;;;1.95;1.63;;;19.70;58.20;;;;;;5016509;28;20291;-84
2023/10/27 05:55:17;;;;;;;1.35;1.25;;;19.70;58.20;;;;;;5016141;28;20203;-84
2023/10/27 05:57:44;;;;;;;1.50;1.40;;;19.70;58.20;;;;;;5016068;28;20208;-84
2023/10/27 06:00:13;;;;;;;1.45;1.35;;;19.70;58.20;;;;;;5016011;28;20303;-83
2023/10/27 06:02:40;;;;;;;2.58;1.60;;;19.70;58.20;;;;;;5016729;28;20204;-84
2023/10/27 06:05:08;;;;;;;1.88;1.35;;;19.70;58.30;;;;;;5017222;28;20250;-83
2023/10/27 06:07:35;;;;;;;1.25;1.15;;;19.70;58.30;;;;;;5015966;28;20203;-84
2023/10/27 06:10:04;;;;;;;1.52;1.40;;;19.70;58.30;;;;;;5018903;28;20223;-84
2023/10/27 06:12:31;;;;;;;1.63;1.25;;;19.70;58.30;;;;;;5020073;28;20200;-84
2023/10/27 06:14:57;;;;;;;1.50;1.40;;;19.70;58.30;;;;;;5019895;28;20207;-84
2023/10/27 06:17:26;;;;;;;1.48;1.33;;;19.70;58.30;;;;;;5019771;28;20219;-84
2023/10/27 06:19:53;;;;;;;1.52;1.40;;;19.60;58.20;;;;;;5021481;28;20220;-84
2023/10/27 06:22:21;;;;;;;1.90;1.50;;;19.70;58.10;;;;;;5019723;28;20210;-84
2023/10/27 06:24:48;;;;;;;1.35;1.25;;;19.80;58.10;;;;;;5020029;28;20262;-83
2023/10/27 06:27:15;;;;;;;1.67;1.33;;;19.80;58.10;;;;;;5020816;28;20234;-84
2023/10/27 06:29:42;;;;;;;1.73;1.38;;;19.80;58.00;;;;;;5019538;28;20257;-84
2023/10/27 06:32:09;;;;;;;1.80;1.40;;;19.80;58.10;;;;;;5019815;28;20663;-84
2023/10/27 06:34:37;;;;;;;1.50;1.40;;;19.80;58.00;;;;;;5020089;28;20270;-82
2023/10/27 06:37:05;;;;;;;1.30;1.20;;;19.90;58.10;;;;;;5019944;28;20216;-83
2023/10/27 06:39:32;;;;;;;1.38;1.15;;;19.90;57.90;;;;;;5004111;28;20216;-82
2023/10/27 06:41:59;;;;;;;1.80;1.30;;;19.90;57.80;;;;;;5019619;28;20249;-80
2023/10/27 06:44:27;;;;;;;2.90;1.73;;;19.90;57.80;;;;;;5019645;28;20218;-81
2023/10/27 06:46:53;;;;;;;2.78;1.50;;;19.90;57.90;;;;;;5019732;28;20667;-81
2023/10/27 06:49:20;;;;;;;3.00;1.50;;;19.90;57.90;;;;;;5011447;28;20224;-80
2023/10/27 06:51:49;;;;;;;1.77;1.30;;;19.90;57.90;;;;;;5036761;28;20257;-80
2023/10/27 06:54:16;;;;;;;1.30;1.15;;;19.90;58.00;;;;;;5036179;28;20635;-80
2023/10/27 06:56:42;;;;;;;1.77;1.30;;;19.90;57.90;;;;;;5019922;28;20216;-80
2023/10/27 06:59:10;;;;;;;1.48;1.10;;;19.90;57.80;;;;;;5036181;28;20200;-80
2023/10/27 07:01:37;;;;;;;2.08;1.40;;;19.90;57.70;;;;;;5036461;28;20204;-79
2023/10/27 07:04:04;;;;;;;1.45;1.10;;;19.90;57.80;;;;;;5035537;28;20200;-79
2023/10/27 07:06:31;;;;;;;1.90;1.17;;;19.90;57.80;;;;;;5035615;28;20655;-79
2023/10/27 07:08:59;;;;;;;2.00;1.35;;;19.90;57.90;;;;;;5035496;28;20197;-79
2023/10/27 07:11:28;;;;;;;1.00;0.98;;;19.90;57.80;;;;;;5035166;28;20734;-79
2023/10/27 07:13:54;;;;;;;1.95;1.23;;;19.90;57.70;;;;;;5035532;28;20662;-79
2023/10/27 07:16:22;;;;;;;1.10;1.00;;;19.90;57.80;;;;;;5035296;28;20251;-79
2023/10/27 07:18:49;;;;;;;1.42;1.30;;;19.90;57.70;;;;;;5036278;28;20311;-79
2023/10/27 07:21:16;;;;;;;1.20;1.10;;;19.90;57.60;;;;;;5033939;28;20270;-79
2023/10/27 07:23:44;;;;;;;1.70;1.20;;;19.90;57.50;;;;;;5035014;28;20203;-79
2023/10/27 07:26:13;;;;;;;1.20;1.10;;;20.00;57.50;;;;;;5035140;28;20270;-79
2023/10/27 07:28:41;;;;;;;1.10;1.00;;;20.00;57.40;;;;;;5035359;28;20196;-80
2023/10/27 07:31:09;;;;;;;1.23;1.13;;;20.00;57.40;;;;;;5034755;28;20219;-80
2023/10/27 07:33:38;;;;;;;1.70;1.17;;;20.00;58.00;;;;;;5035912;28;20259;-83
2023/10/27 07:36:06;;;;;;;1.20;1.10;;;20.00;57.40;;;;;;5037807;28;20200;-81
2023/10/27 07:38:34;;;;;;;1.30;1.20;;;20.00;57.40;;;;;;5035661;28;20192;-81
2023/10/27 07:41:02;;;;;;;1.83;1.27;;;20.10;57.40;;;;;;5040691;28;20276;-81
2023/10/27 07:43:30;;;;;;;2.08;1.10;;;20.10;57.50;;;;;;5058837;28;20181;-80
2023/10/27 07:45:57;;;;;;;2.05;1.20;;;20.10;57.50;;;;;;5058537;28;20180;-81
2023/10/27 07:48:25;;;;;;;2.17;1.30;;;20.10;57.60;;;;;;5035904;28;20254;-82
2023/10/27 07:50:54;;;;;;;1.40;1.25;;;20.10;57.90;;;;;;5034804;28;20212;-81
2023/10/27 07:53:21;;;;;;;1.60;1.17;;;20.20;58.40;;;;;;5034763;28;20219;-81
2023/10/27 07:55:48;;;;;;;1.60;1.40;;;20.20;58.80;;;;;;5034577;28;20250;-81
2023/10/27 07:58:15;;;;;;;2.00;1.40;;;20.20;58.90;;;;;;5034383;28;20227;-80
2023/10/27 08:00:43;;;;;;;1.30;1.20;;;20.30;58.90;;;;;;5034881;28;20258;-81
2023/10/27 08:03:11;;;;;;;1.27;1.00;;;20.30;58.60;;;;;;5035176;28;20653;-81
2023/10/27 08:05:38;;;;;;;1.20;1.00;;;20.30;58.50;;;;;;5034738;28;20196;-81
2023/10/27 08:08:06;;;;;;;1.20;1.10;;;20.30;58.50;;;;;;5034537;28;20622;-81
2023/10/27 08:10:32;;;;;;;1.20;1.10;;;20.30;58.70;;;;;;5034607;28;20708;-81
2023/10/27 08:12:59;;;;;;;1.38;1.08;;;20.30;58.70;;;;;;5034837;28;20246;-81
2023/10/27 08:15:26;;;;;;;1.35;1.20;;;20.40;58.70;;;;;;5035285;28;20196;-81
2023/10/27 08:17:55;;;;;;;3.40;1.10;;;20.40;58.60;;;;;;5034425;28;20216;-81
2023/10/27 08:20:22;;;;;;;1.23;1.00;;;20.40;58.60;;;;;;5034623;28;20215;-81
2023/10/27 08:22:49;;;;;;;1.50;1.40;;;20.40;58.60;;;;;;5035143;28;20296;-81
2023/10/27 08:25:16;;;;;;;1.45;1.10;;;20.30;58.40;;;;;;5034885;28;20192;-81
2023/10/27 08:27:43;;;;;;;1.02;0.93;;;20.40;58.40;;;;;;5034699;28;20200;-81
2023/10/27 08:30:12;;;;;;;1.83;1.00;;;20.30;58.10;;;;;;5034148;28;20563;-81
2023/10/27 08:32:39;;;;;;;1.00;0.90;;;20.40;58.30;;;;;;5034481;28;20200;-81
2023/10/27 08:35:08;;;;;;;1.67;1.30;;;20.40;58.20;;;;;;5018947;28;20196;-81
2023/10/27 08:37:35;;;;;;;2.22;1.00;;;20.40;58.40;;;;;;5033941;28;20220;-81
2023/10/27 08:40:03;;;;;;;2.97;1.00;;;20.40;59.00;;;;;;5034874;28;20699;-81
2023/10/27 08:42:32;;;;;;;1.27;1.08;;;20.50;59.90;;;;;;5034129;28;20196;-80
2023/10/27 08:45:00;;;;;;;1.90;1.17;;;20.50;59.10;;;;;;5034270;28;20196;-80
2023/10/27 08:47:30;;;;;;;1.20;1.10;;;20.60;58.80;;;;;;5034202;28;20192;-78
2023/10/27 08:49:59;;;;;;;3.80;2.03;;;20.60;57.90;;;;;;5033403;28;20322;-79
2023/10/27 08:52:28;;;;;;;6.97;4.13;;;20.60;57.80;;;;;;5033918;28;20205;-82
2023/10/27 08:54:55;;;;;;;3.88;2.40;;;20.60;58.70;;;;;;5033578;28;20299;-82
2023/10/27 08:57:22;;;;;;;12.93;8.90;;;20.60;58.60;;;;;;5017394;28;20216;-82
2023/10/27 08:59:50;;;;;;;21.33;10.30;;;20.60;58.90;;;;;;5033269;28;20629;-82
2023/10/27 09:02:27;;;;;;;21.52;10.48;;;20.60;61.00;;;;;;5033584;28;20283;-82
2023/10/27 09:04:59;;;;;;;13.70;6.60;;;20.60;62.00;;;;;;5036258;28;20207;-83
2023/10/27 09:07:28;;;;;;;8.18;4.38;;;20.60;61.30;;;;;;5039413;28;20184;-79
2023/10/27 09:09:55;;;;;;;19.38;9.85;;;20.70;59.90;;;;;;5022546;28;20220;-79
2023/10/27 09:12:23;;;;;;;15.57;9.00;;;20.60;61.20;;;;;;5022386;28;20205;-80
2023/10/27 09:14:58;;;;;;;28.73;12.95;;;20.70;61.80;;;;;;5023537;28;20224;-79
2023/10/27 09:17:25;;;;;;;15.70;8.23;;;20.70;62.30;;;;;;5038602;28;20207;-79
2023/10/27 09:20:03;;;;;;;19.08;9.65;;;20.70;61.20;;;;;;5043988;28;20628;-85
2023/10/27 09:22:32;;;;;;;13.07;6.80;;;20.70;61.70;;;;;;5044816;28;20188;-83
2023/10/27 09:25:14;;;;;;;17.27;9.93;;;20.80;61.10;;;;;;5045005;28;20655;-83
2023/10/27 09:27:45;;;;;;;17.70;8.98;;;20.80;61.30;;;;;;5042841;28;20268;-82
2023/10/27 09:30:25;;;;;;;9.98;6.13;;;20.80;61.60;;;;;;5045532;28;20216;-82
2023/10/27 09:32:52;;;;;;;10.43;5.43;;;20.80;60.40;;;;;;5043616;28;20265;-83
2023/10/27 09:35:19;;;;;;;11.98;6.60;;;20.80;59.80;;;;;;5044278;28;20644;-82
2023/10/27 09:37:49;;;;;;;17.30;8.75;;;20.80;60.20;;;;;;5043372;28;20215;-83
2023/10/27 09:40:16;;;;;;;17.35;9.13;;;20.80;61.10;;;;;;5043371;28;20243;-83
2023/10/27 09:42:43;;;;;;;10.73;5.50;;;20.80;61.40;;;;;;5042468;28;20199;-82
2023/10/27 09:45:13;;;;;;;13.07;5.82;;;20.80;61.70;;;;;;5024810;28;20200;-82
2023/10/27 09:47:45;;;;;;;11.80;5.60;;;20.90;61.00;;;;;;5043586;28;20205;-81
2023/10/27 09:50:14;;;;;;;11.50;5.30;;;20.90;60.70;;;;;;5043356;28;20234;-81
2023/10/27 09:52:45;;;;;;;8.90;5.32;;;21.00;60.60;;;;;;5022204;28;20202;-79
2023/10/27 09:55:18;;;;;;;7.85;3.83;;;21.00;61.20;;;;;;5040757;28;20200;-83
2023/10/27 09:57:45;;;;;;;7.55;4.30;;;21.20;59.80;;;;;;5040164;28;20216;-83
2023/10/27 10:00:14;;;;;;;8.63;4.03;;;21.30;59.30;;;;;;5041318;28;20220;-82
2023/10/27 10:02:42;;;;;;;9.02;4.75;;;21.40;59.30;;;;;;5025465;28;20202;-82
2023/10/27 10:05:11;;;;;;;7.72;3.90;;;21.40;59.50;;;;;;5042991;28;20639;-83
2023/10/27 10:07:41;;;;;;;8.10;4.25;;;21.40;59.20;;;;;;5041642;28;20192;-81
2023/10/27 10:10:20;;;;;;;6.38;3.15;;;21.40;58.80;;;;;;5023257;28;20224;-82
2023/10/27 10:13:04;;;;;;;7.55;4.10;;;21.50;58.50;;;;;;5033458;28;20199;-82
2023/10/27 10:15:32;;;;;;;5.15;3.25;;;21.50;58.40;;;;;;5033195;28;20196;-82
2023/10/27 10:17:59;;;;;;;4.43;3.33;;;21.50;58.00;;;;;;5017178;28;20243;-82
2023/10/27 10:20:57;;;;;;;5.72;3.83;;;21.60;57.80;;;;;;5032458;28;20220;-82
2023/10/27 10:24:05;;;;;;;5.95;3.35;;;21.60;57.80;;;;;;5032951;28;20204;-82
2023/10/27 10:27:05;;;;;;;5.70;3.22;;;21.70;57.70;;;;;;5032825;28;20663;-82
2023/10/27 10:29:33;;;;;;;9.23;5.20;;;21.70;57.70;;;;;;5033084;28;20284;-82
2023/10/27 10:32:32;;;;;;;10.77;6.18;;;21.80;58.70;;;;;;5034255;28;20220;-82
2023/10/27 10:35:26;;;;;;;7.53;5.00;;;21.80;59.50;;;;;;5033300;28;20200;-83
2023/10/27 10:37:53;;;;;;;9.07;5.28;;;21.80;59.30;;;;;;5033413;28;20299;-84
2023/10/27 10:40:22;;;;;;;11.48;5.97;;;21.90;59.30;;;;;;5035031;28;20239;-81
2023/10/27 10:43:27;;;;;;;10.70;7.18;;;21.90;58.80;;;;;;5032941;28;20205;-81
2023/10/27 10:45:56;;;;;;;10.65;6.40;;;22.00;59.50;;;;;;5033836;28;20291;-81
2023/10/27 10:48:24;;;;;;;15.35;7.43;;;22.00;59.50;;;;;;5032220;28;20215;-81
2023/10/27 10:50:51;;;;;;;14.90;9.40;;;22.00;60.00;;;;;;5032633;28;20270;-79
2023/10/27 10:53:22;;;;;;;14.15;7.63;;;22.00;60.70;;;;;;5031915;28;20254;-79
2023/10/27 10:55:50;;;;;;;14.77;7.85;;;22.10;61.20;;;;;;5034135;28;20250;-79
2023/10/27 10:58:23;;;;;;;12.63;7.00;;;22.10;60.80;;;;;;5035630;28;20730;-80
2023/10/27 11:00:50;;;;;;;8.93;6.43;;;22.10;60.10;;;;;;5035491;28;20227;-81
2023/10/27 11:03:21;;;;;;;12.85;6.03;;;22.10;59.60;;;;;;5035537;28;20204;-79
2023/10/27 11:05:48;;;;;;;9.57;6.10;;;22.10;59.10;;;;;;5036311;28;20210;-79
2023/10/27 11:08:23;;;;;;;11.70;6.60;;;22.10;59.10;;;;;;5035537;28;20199;-80
2023/10/27 11:10:58;;;;;;;8.88;5.50;;;22.10;59.70;;;;;;5035548;28;20216;-78
2023/10/27 11:13:25;;;;;;;10.00;5.68;;;22.10;58.90;;;;;;5037362;28;20658;-80
2023/10/27 11:15:52;;;;;;;9.18;4.78;;;22.10;58.70;;;;;;5035641;28;20196;-80
2023/10/27 11:18:20;;;;;;;9.45;4.82;;;22.10;58.60;;;;;;5036569;28;20574;-80
2023/10/27 11:20:49;;;;;;;7.78;4.30;;;22.20;58.70;;;;;;5035395;28;20230;-79
2023/10/27 11:23:16;;;;;;;12.13;6.22;;;22.10;58.60;;;;;;5040358;28;20199;-79
2023/10/27 11:25:44;;;;;;;15.57;7.80;;;22.00;59.00;;;;;;5058785;28;20180;-80
2023/10/27 11:28:21;;;;;;;12.73;6.80;;;22.10;60.20;;;;;;5051381;28;20216;-84
2023/10/27 11:31:02;;;;;;;17.40;7.85;;;22.10;60.00;;;;;;5036315;28;20219;-82
2023/10/27 11:33:31;;;;;;;15.65;8.23;;;22.10;60.70;;;;;;5035249;28;20643;-82
2023/10/27 11:35:58;;;;;;;12.85;6.10;;;22.10;60.80;;;;;;5035121;28;20647;-84
2023/10/27 11:38:31;;;;;;;13.77;7.05;;;22.10;60.70;;;;;;5035075;28;20220;-87
2023/10/27 11:41:10;;;;;;;15.85;7.32;;;22.20;60.70;;;;;;5034677;28;20235;-85
2023/10/27 11:43:37;;;;;;;14.35;7.10;;;22.20;60.40;;;;;;5034772;28;20241;-85
2023/10/27 11:46:12;;;;;;;16.63;7.35;;;22.10;60.00;;;;;;5037337;28;20200;-84
2023/10/27 11:48:40;;;;;;;12.02;6.07;;;22.20;60.40;;;;;;5034676;28;20619;-83
2023/10/27 11:51:07;;;;;;;14.48;6.93;;;22.20;60.40;;;;;;5035880;28;20216;-83
2023/10/27 11:53:35;;;;;;;10.23;5.85;;;22.20;59.90;;;;;;5036557;28;20192;-87
2023/10/27 11:56:04;;;;;;;14.10;6.20;;;22.20;59.70;;;;;;5019091;28;20223;-83
2023/10/27 11:58:31;;;;;;;9.23;5.55;;;22.30;59.50;;;;;;5035101;28;20266;-80
2023/10/27 12:00:58;;;;;;;13.25;6.10;;;22.30;59.20;;;;;;5018285;28;20319;-80
2023/10/27 12:03:25;;;;;;;9.35;5.70;;;22.30;59.10;;;;;;5034528;28;20551;-81
2023/10/27 12:05:53;;;;;;;10.73;5.97;;;22.40;58.90;;;;;;5034686;28;20196;-79
2023/10/27 12:08:20;;;;;;;9.27;5.45;;;22.40;58.70;;;;;;5033693;28;20192;-81
2023/10/27 12:10:48;;;;;;;9.20;5.15;;;22.40;58.50;;;;;;5034393;28;20230;-83
2023/10/27 12:13:16;;;;;;;8.98;5.10;;;22.40;58.20;;;;;;5034358;28;20207;-81
2023/10/27 12:15:42;;;;;;;7.20;4.07;;;22.40;58.00;;;;;;5034375;28;20203;-82
2023/10/27 12:18:09;;;;;;;11.57;4.97;;;22.40;57.90;;;;;;5034019;28;20220;-78
2023/10/27 12:20:39;;;;;;;7.30;4.07;;;22.50;57.90;;;;;;5034807;28;20310;-80
2023/10/27 12:23:08;;;;;;;7.22;4.53;;;22.50;57.80;;;;;;5034038;28;20848;-83
2023/10/27 12:25:34;;;;;;;9.50;4.75;;;22.50;57.60;;;;;;5034179;28;20644;-78
2023/10/27 12:28:02;;;;;;;8.27;4.63;;;22.50;57.60;;;;;;5035316;28;20188;-78
2023/10/27 12:30:30;;;;;;;7.35;3.78;;;22.50;57.40;;;;;;5017633;28;20655;-82
2023/10/27 12:32:57;;;;;;;6.70;4.38;;;22.50;57.60;;;;;;5033855;28;20199;-78
2023/10/27 12:35:26;;;;;;;6.40;4.00;;;22.40;57.40;;;;;;5033911;28;20200;-80
2023/10/27 12:37:54;;;;;;;8.68;4.55;;;22.40;57.40;;;;;;5034894;28;20200;-81
2023/10/27 12:40:22;;;;;;;7.38;4.03;;;22.50;57.40;;;;;;5017926;28;20212;-78
2023/10/27 12:42:50;;;;;;;6.35;4.30;;;22.40;57.40;;;;;;5033785;28;20228;-82
2023/10/27 12:45:17;;;;;;;6.68;4.13;;;22.40;57.30;;;;;;5033840;28;20212;-80
2023/10/27 12:47:45;;;;;;;7.38;4.18;;;22.40;57.40;;;;;;5034773;28;20204;-80
2023/10/27 12:50:12;;;;;;;8.95;4.20;;;22.40;57.30;;;;;;5034069;28;20224;-80
2023/10/27 12:52:39;;;;;;;9.43;4.65;;;22.40;57.20;;;;;;5033703;28;20287;-80